Time;durP1;ratioP1;P1;durP2;ratioP2;P2;SDS_P1;SDS_P2;PMS_P1;PMS_P2;Temp;Humidity;BMP_temperature;BMP_pressure;BME280_temperature;BME280_humidity;BME280_pressure;Samples;Min_cycle;Max_cycle;Signal;HPM_P1;HPM_P2
2023/07/24 00:01:18;;;;;;;6.57;4.93;;;;;;;;;;5022768;28;20206;-26
2023/07/24 00:03:46;;;;;;;7.40;4.97;;;;;;;;;;5020407;28;20212;-29
2023/07/24 00:06:15;;;;;;;8.50;5.40;;;;;;;;;;5011806;28;20211;-30
2023/07/24 00:08:43;;;;;;;7.30;4.83;;;;;;;;;;5013066;28;20249;-29
2023/07/24 00:11:11;;;;;;;11.00;4.73;;;;;;;;;;5012978;28;20210;-26
2023/07/24 00:13:38;;;;;;;5.30;4.33;;;;;;;;;;5026798;28;20209;-28
2023/07/24 00:16:08;;;;;;;7.13;4.87;;;;;;;;;;5023126;28;20211;-25
2023/07/24 00:18:35;;;;;;;8.83;5.00;;;;;;;;;;5022737;28;20231;-27
2023/07/24 00:21:02;;;;;;;8.83;5.30;;;;;;;;;;5024695;28;20203;-27
2023/07/24 00:23:29;;;;;;;7.03;4.90;;;;;;;;;;5030358;28;20234;-26
2023/07/24 00:25:56;;;;;;;6.73;5.03;;;;;;;;;;5023387;28;20266;-27
2023/07/24 00:28:25;;;;;;;5.57;4.60;;;;;;;;;;5022825;28;20237;-26
2023/07/24 00:30:52;;;;;;;8.57;5.63;;;;;;;;;;5022046;28;20203;-27
2023/07/24 00:33:19;;;;;;;9.80;5.37;;;;;;;;;;5032879;28;20301;-28
2023/07/24 00:35:46;;;;;;;7.30;5.13;;;;;;;;;;5028258;28;20224;-26
2023/07/24 00:38:13;;;;;;;7.03;4.97;;;;;;;;;;5025173;28;20203;-27
2023/07/24 00:40:40;;;;;;;6.83;4.50;;;;;;;;;;5017836;28;20209;-27
2023/07/24 00:43:08;;;;;;;9.77;5.17;;;;;;;;;;5028492;28;20205;-28
2023/07/24 00:45:37;;;;;;;6.27;4.77;;;;;;;;;;5020409;28;20483;-28
2023/07/24 00:48:04;;;;;;;9.07;5.27;;;;;;;;;;5016321;28;20207;-28
2023/07/24 00:50:32;;;;;;;7.07;4.53;;;;;;;;;;5025240;28;20214;-28
2023/07/24 00:52:59;;;;;;;6.97;5.00;;;;;;;;;;5018421;28;20222;-28
2023/07/24 00:55:26;;;;;;;6.97;5.33;;;;;;;;;;5018389;28;20653;-29
2023/07/24 00:57:54;;;;;;;8.13;5.43;;;;;;;;;;5023997;28;20207;-29
2023/07/24 01:00:21;;;;;;;6.33;4.80;;;;;;;;;;5026584;28;20305;-29
2023/07/24 01:02:52;;;;;;;7.00;5.00;;;;;;;;;;5013373;28;20211;-28
2023/07/24 01:05:20;;;;;;;7.50;5.20;;;;;;;;;;5015145;28;20226;-28
2023/07/24 01:07:47;;;;;;;7.30;4.80;;;;;;;;;;5013675;28;20208;-28
2023/07/24 01:10:14;;;;;;;6.80;4.53;;;;;;;;;;5032303;28;20240;-29
2023/07/24 01:12:47;;;;;;;8.13;4.60;;;;;;;;;;5020469;28;20210;-26
2023/07/24 01:15:16;;;;;;;7.13;4.87;;;;;;;;;;5024931;28;20203;-27
2023/07/24 01:17:47;;;;;;;7.97;5.03;;;;;;;;;;5031356;28;20217;-29
2023/07/24 01:20:17;;;;;;;7.83;4.97;;;;;;;;;;5023508;28;20226;-26
2023/07/24 01:22:51;;;;;;;7.57;5.30;;;;;;;;;;5015273;28;20294;-27
2023/07/24 01:25:22;;;;;;;6.73;4.90;;;;;;;;;;5024310;28;20198;-28
2023/07/24 01:27:51;;;;;;;8.87;5.13;;;;;;;;;;5016468;28;20210;-30
2023/07/24 01:30:18;;;;;;;6.87;4.90;;;;;;;;;;5023529;28;20236;-28
2023/07/24 01:32:46;;;;;;;6.37;4.40;;;;;;;;;;5031385;28;20210;-29
2023/07/24 01:35:13;;;;;;;7.03;4.50;;;;;;;;;;5029084;28;20207;-29
2023/07/24 01:37:41;;;;;;;7.70;5.00;;;;;;;;;;5022574;28;20206;-27
2023/07/24 01:40:09;;;;;;;7.47;5.10;;;;;;;;;;5019816;28;20227;-26
2023/07/24 01:42:36;;;;;;;7.27;4.47;;;;;;;;;;5019327;28;20207;-28
2023/07/24 01:45:05;;;;;;;7.30;4.63;;;;;;;;;;5022433;28;20216;-28
2023/07/24 01:47:32;;;;;;;6.53;5.10;;;;;;;;;;5014622;28;20238;-26
2023/07/24 01:50:00;;;;;;;9.17;5.20;;;;;;;;;;5022893;28;20233;-27
2023/07/24 01:52:28;;;;;;;8.57;4.80;;;;;;;;;;5018871;28;20211;-27
2023/07/24 01:54:55;;;;;;;7.70;5.37;;;;;;;;;;5011911;28;20229;-28
2023/07/24 01:57:22;;;;;;;8.70;5.10;;;;;;;;;;5012308;28;20208;-29
2023/07/24 01:59:49;;;;;;;6.43;4.80;;;;;;;;;;5012788;28;20230;-27
2023/07/24 02:02:18;;;;;;;6.30;4.97;;;;;;;;;;5015592;28;20205;-29
2023/07/24 02:04:45;;;;;;;7.97;5.67;;;;;;;;;;5030704;28;20206;-27
2023/07/24 02:07:12;;;;;;;6.33;4.83;;;;;;;;;;5023393;28;20225;-29
2023/07/24 02:09:39;;;;;;;6.63;5.23;;;;;;;;;;5013148;28;20234;-27
2023/07/24 02:12:07;;;;;;;7.20;4.90;;;;;;;;;;5014979;28;20207;-27
2023/07/24 02:14:34;;;;;;;9.83;5.40;;;;;;;;;;5024040;28;20209;-31
2023/07/24 02:17:01;;;;;;;8.10;5.27;;;;;;;;;;5014087;28;20214;-27
2023/07/24 02:19:29;;;;;;;8.40;5.60;;;;;;;;;;5030242;28;20229;-30
2023/07/24 02:21:56;;;;;;;7.10;5.10;;;;;;;;;;5013853;28;20217;-29
2023/07/24 02:24:24;;;;;;;7.53;5.43;;;;;;;;;;5025232;28;20198;-28
2023/07/24 02:26:51;;;;;;;8.93;5.50;;;;;;;;;;5018991;28;20232;-27
2023/07/24 02:29:18;;;;;;;8.13;5.53;;;;;;;;;;5022122;28;20230;-29
2023/07/24 02:31:45;;;;;;;7.50;5.17;;;;;;;;;;5030190;28;20248;-31
2023/07/24 02:34:13;;;;;;;7.47;5.07;;;;;;;;;;5022056;28;20213;-27
2023/07/24 02:36:41;;;;;;;7.13;5.33;;;;;;;;;;5018197;28;20213;-30
2023/07/24 02:39:08;;;;;;;6.80;4.93;;;;;;;;;;5019296;28;20234;-27
2023/07/24 02:41:35;;;;;;;8.33;5.27;;;;;;;;;;5014538;28;20210;-28
2023/07/24 02:44:04;;;;;;;9.07;5.17;;;;;;;;;;5021156;28;20219;-25
2023/07/24 02:46:31;;;;;;;7.77;5.37;;;;;;;;;;5029708;28;20237;-30
2023/07/24 02:48:58;;;;;;;7.40;5.03;;;;;;;;;;5029270;28;20227;-28
2023/07/24 02:51:25;;;;;;;7.30;5.10;;;;;;;;;;5016858;28;20210;-29
2023/07/24 02:53:55;;;;;;;7.97;5.40;;;;;;;;;;5022481;28;20224;-27
2023/07/24 02:56:22;;;;;;;7.33;5.40;;;;;;;;;;5014413;28;20414;-27
2023/07/24 02:58:49;;;;;;;7.73;5.57;;;;;;;;;;5021145;28;20233;-26
2023/07/24 03:01:16;;;;;;;7.87;5.37;;;;;;;;;;5015973;28;20214;-25
2023/07/24 03:03:43;;;;;;;8.10;5.17;;;;;;;;;;5011140;28;20224;-27
2023/07/24 03:06:10;;;;;;;6.87;4.60;;;;;;;;;;5010623;28;20317;-29
2023/07/24 03:08:38;;;;;;;7.60;5.23;;;;;;;;;;5020224;28;20230;-28
2023/07/24 03:11:07;;;;;;;7.70;4.93;;;;;;;;;;5017067;28;20225;-29
2023/07/24 03:13:34;;;;;;;9.53;5.43;;;;;;;;;;5025200;28;20224;-27
2023/07/24 03:16:02;;;;;;;7.20;5.67;;;;;;;;;;5022024;28;20196;-27
2023/07/24 03:18:29;;;;;;;7.67;4.67;;;;;;;;;;5023840;28;20242;-28
2023/07/24 03:20:58;;;;;;;8.00;5.20;;;;;;;;;;5012063;28;20210;-28
2023/07/24 03:23:25;;;;;;;10.87;5.73;;;;;;;;;;5017597;28;20213;-27
2023/07/24 03:28:38;;;;;;;9.87;5.53;;;;;;;;;;5027199;28;20262;-25
2023/07/24 03:31:17;;;;;;;7.07;5.13;;;;;;;;;;5032899;28;20268;-27
2023/07/24 03:33:51;;;;;;;8.47;5.27;;;;;;;;;;5032712;28;20206;-24
2023/07/24 03:36:24;;;;;;;7.13;5.00;;;;;;;;;;5027118;28;20211;-29
2023/07/24 03:38:54;;;;;;;8.03;5.77;;;;;;;;;;5030904;28;20275;-27
2023/07/24 03:41:22;;;;;;;7.40;5.00;;;;;;;;;;5032175;28;20239;-25
2023/07/24 03:43:51;;;;;;;12.40;5.07;;;;;;;;;;5030994;28;20220;-28
2023/07/24 03:46:25;;;;;;;7.53;5.10;;;;;;;;;;5034491;28;20214;-29
2023/07/24 03:48:55;;;;;;;7.10;4.87;;;;;;;;;;5036716;28;20234;-27
2023/07/24 03:51:33;;;;;;;7.27;5.33;;;;;;;;;;5025790;28;20303;-27
2023/07/24 03:54:07;;;;;;;6.97;5.27;;;;;;;;;;5036572;28;20219;-30
2023/07/24 03:56:40;;;;;;;6.87;4.40;;;;;;;;;;5034523;28;20293;-28
2023/07/24 03:59:15;;;;;;;9.40;5.93;;;;;;;;;;5038674;28;20223;-25
2023/07/24 04:01:45;;;;;;;8.67;5.63;;;;;;;;;;5039182;28;20206;-27
2023/07/24 04:04:30;;;;;;;9.10;5.50;;;;;;;;;;5036306;28;20288;-26
2023/07/24 04:07:08;;;;;;;8.27;5.63;;;;;;;;;;5042296;28;20228;-27
2023/07/24 04:09:39;;;;;;;7.83;5.00;;;;;;;;;;5048498;28;20283;-26
2023/07/24 04:12:14;;;;;;;7.60;5.47;;;;;;;;;;5033309;28;20206;-24
2023/07/24 04:14:50;;;;;;;7.57;5.20;;;;;;;;;;5023904;28;20213;-28
2023/07/24 04:17:26;;;;;;;7.63;5.43;;;;;;;;;;5035493;28;20213;-28
2023/07/24 04:20:03;;;;;;;7.13;5.40;;;;;;;;;;5035841;28;20316;-25
2023/07/24 04:22:36;;;;;;;7.33;4.90;;;;;;;;;;5020387;28;20212;-26
2023/07/24 04:25:08;;;;;;;9.47;5.53;;;;;;;;;;5034590;28;20243;-26
2023/07/24 04:27:36;;;;;;;9.23;5.87;;;;;;;;;;5025514;28;20236;-28
2023/07/24 04:30:11;;;;;;;7.63;5.63;;;;;;;;;;5026843;28;20280;-29
2023/07/24 04:32:51;;;;;;;9.23;5.43;;;;;;;;;;5051437;28;20204;-28
2023/07/24 04:35:19;;;;;;;7.93;5.83;;;;;;;;;;5031502;28;20205;-27
2023/07/24 04:37:51;;;;;;;7.90;5.27;;;;;;;;;;5039819;28;20204;-26
2023/07/24 04:40:20;;;;;;;8.03;5.20;;;;;;;;;;5055066;28;20383;-26
2023/07/24 04:42:58;;;;;;;10.40;5.40;;;;;;;;;;5031242;28;20221;-25
2023/07/24 04:45:34;;;;;;;8.03;5.20;;;;;;;;;;5049562;28;20255;-27
2023/07/24 04:48:03;;;;;;;8.17;5.53;;;;;;;;;;5044996;28;20233;-25
2023/07/24 04:50:36;;;;;;;9.37;5.27;;;;;;;;;;5037018;28;20214;-27
2023/07/24 04:53:08;;;;;;;10.57;5.83;;;;;;;;;;5030309;28;20202;-27
2023/07/24 04:55:39;;;;;;;8.70;6.33;;;;;;;;;;5041098;28;20227;-23
2023/07/24 04:58:11;;;;;;;7.30;4.83;;;;;;;;;;5024436;28;20202;-28
2023/07/24 05:00:50;;;;;;;10.10;5.40;;;;;;;;;;5041668;28;20216;-25
2023/07/24 05:03:20;;;;;;;6.50;4.83;;;;;;;;;;5054250;28;20204;-28
2023/07/24 05:05:50;;;;;;;8.50;4.70;;;;;;;;;;5027757;28;20206;-25
2023/07/24 05:08:20;;;;;;;7.27;4.90;;;;;;;;;;5041805;28;20224;-27
2023/07/24 05:10:54;;;;;;;8.67;5.20;;;;;;;;;;5032791;28;20256;-27
2023/07/24 05:13:40;;;;;;;6.83;4.90;;;;;;;;;;5030688;28;20290;-27
2023/07/24 05:16:38;;;;;;;7.27;5.00;;;;;;;;;;5034873;28;20205;-27
2023/07/24 05:22:12;;;;;;;8.67;5.83;;;;;;;;;;5231139;22;20258;-26
2023/07/24 05:24:49;;;;;;;9.50;5.60;;;;;;;;;;5029805;28;20303;-28
2023/07/24 05:27:30;;;;;;;10.10;5.70;;;;;;;;;;5044753;28;20224;-26
2023/07/24 05:30:04;;;;;;;8.17;5.07;;;;;;;;;;5029764;28;20226;-24
2023/07/24 05:32:34;;;;;;;9.87;5.77;;;;;;;;;;5026362;28;20213;-28
2023/07/24 05:43:00;;;;;;;10.50;5.63;;;;;;;;;;5045506;28;20260;-25
2023/07/24 05:45:31;;;;;;;8.67;5.60;;;;;;;;;;5046625;28;20202;-27
2023/07/24 05:48:09;;;;;;;9.20;5.70;;;;;;;;;;5044640;28;20250;-30
2023/07/24 05:50:37;;;;;;;8.80;5.60;;;;;;;;;;5022308;28;20217;-29
2023/07/24 05:53:08;;;;;;;8.50;5.70;;;;;;;;;;5046369;28;20206;-26
2023/07/24 05:55:43;;;;;;;11.17;6.23;;;;;;;;;;5033760;28;20210;-24
2023/07/24 05:58:12;;;;;;;8.27;6.07;;;;;;;;;;5026135;28;20202;-25
2023/07/24 06:00:43;;;;;;;10.07;6.40;;;;;;;;;;5034015;28;20206;-27
2023/07/24 06:03:14;;;;;;;10.20;6.20;;;;;;;;;;5034161;28;20206;-26
2023/07/24 06:05:48;;;;;;;8.67;5.90;;;;;;;;;;5034901;28;20213;-26
2023/07/24 06:08:16;;;;;;;10.83;6.13;;;;;;;;;;5029813;28;20233;-28
2023/07/24 06:10:48;;;;;;;8.67;5.67;;;;;;;;;;5035126;28;20210;-28
2023/07/24 06:13:21;;;;;;;8.93;5.87;;;;;;;;;;5026454;28;20199;-24
2023/07/24 06:15:53;;;;;;;8.93;5.80;;;;;;;;;;5418896;22;20237;-26
2023/07/24 06:18:22;;;;;;;6.80;5.50;;;;;;;;;;5031910;28;20216;-29
2023/07/24 06:20:54;;;;;;;8.43;5.23;;;;;;;;;;5035893;28;20217;-27
2023/07/24 06:23:24;;;;;;;8.67;5.37;;;;;;;;;;5031490;28;20249;-24
2023/07/24 06:26:01;;;;;;;10.63;5.70;;;;;;;;;;5036131;28;20260;-25
2023/07/24 06:28:29;;;;;;;9.67;5.47;;;;;;;;;;5042518;22;20274;-28
2023/07/24 06:30:58;;;;;;;7.70;5.70;;;;;;;;;;5025266;28;20265;-25
2023/07/24 06:33:29;;;;;;;10.23;5.20;;;;;;;;;;5018865;28;20203;-27
2023/07/24 06:35:59;;;;;;;7.57;5.63;;;;;;;;;;5031848;28;20216;-25
2023/07/24 06:38:31;;;;;;;7.33;5.43;;;;;;;;;;5033574;28;20230;-25
2023/07/24 06:41:03;;;;;;;7.90;5.30;;;;;;;;;;5027798;28;20203;-27
2023/07/24 06:43:32;;;;;;;7.77;5.67;;;;;;;;;;5022813;28;20214;-28
2023/07/24 06:46:03;;;;;;;8.77;5.70;;;;;;;;;;5023055;28;20221;-30
2023/07/24 06:48:37;;;;;;;7.87;5.50;;;;;;;;;;5025467;28;20234;-26
2023/07/24 06:51:05;;;;;;;7.10;5.43;;;;;;;;;;5023685;28;20267;-28
2023/07/24 06:53:35;;;;;;;6.80;5.07;;;;;;;;;;5019155;28;20206;-25
2023/07/24 07:03:50;;;;;;;11.03;6.50;;;;;;;;;;5012119;28;20226;-35
2023/07/24 07:06:21;;;;;;;11.27;6.20;;;;;;;;;;5023272;28;20210;-33
2023/07/24 07:08:48;;;;;;;10.47;6.23;;;;;;;;;;5022208;28;20237;-27
2023/07/24 07:11:17;;;;;;;7.30;4.93;;;;;;;;;;5014102;28;20880;-31
2023/07/24 07:13:51;;;;;;;9.00;6.73;;;;;;;;;;5021184;28;20206;-28
2023/07/24 07:16:20;;;;;;;8.37;5.20;;;;;;;;;;5013691;28;20198;-37
2023/07/24 07:19:05;;;;;;;9.30;5.97;;;;;;;;;;5017921;28;20229;-33
2023/07/24 07:21:33;;;;;;;8.23;6.00;;;;;;;;;;5019099;28;20217;-33
2023/07/24 07:24:07;;;;;;;9.20;5.77;;;;;;;;;;5013059;28;20207;-34
2023/07/24 07:26:44;;;;;;;8.93;6.30;;;;;;;;;;5020008;28;20214;-36
2023/07/24 07:29:12;;;;;;;8.10;5.53;;;;;;;;;;5032366;28;20238;-35
2023/07/24 07:31:45;;;;;;;8.60;5.67;;;;;;;;;;5016790;28;20208;-37
2023/07/24 07:34:23;;;;;;;8.80;5.93;;;;;;;;;;5012508;28;20214;-30
2023/07/24 07:39:50;;;;;;;10.30;5.83;;;;;;;;;;5022184;28;20237;-25
2023/07/24 07:42:28;;;;;;;9.53;6.13;;;;;;;;;;4994677;28;20253;-26
2023/07/24 07:44:59;;;;;;;11.10;6.10;;;;;;;;;;5031275;28;20205;-25
2023/07/24 07:47:33;;;;;;;7.83;5.37;;;;;;;;;;5032533;28;20222;-25
2023/07/24 07:50:07;;;;;;;8.97;5.67;;;;;;;;;;5014718;28;20229;-26
2023/07/24 07:52:40;;;;;;;8.63;5.90;;;;;;;;;;5031379;28;20242;-27
2023/07/24 07:57:45;;;;;;;9.83;6.17;;;;;;;;;;5023263;22;20234;-24
2023/07/24 08:03:16;;;;;;;11.43;6.33;;;;;;;;;;5010223;28;20248;-29
2023/07/24 08:05:50;;;;;;;10.68;6.38;;;;;;;;;;5011148;28;20210;-25
2023/07/24 08:08:22;;;;;;;10.07;6.18;;;;;;;;;;5020089;23;20218;-27
2023/07/24 08:10:49;;;;;;;8.60;6.32;;;;;;;;;;5012127;28;20234;-28
2023/07/24 08:13:16;;;;;;;8.35;5.72;;;;;;;;;;5011020;28;20208;-28
2023/07/24 08:15:43;;;;;;;10.90;6.27;;;;;;;;;;5019825;28;20294;-28
2023/07/24 08:18:10;;;;;;;9.93;6.00;;;;;;;;;;5024043;28;20194;-27
2023/07/24 08:20:38;;;;;;;9.93;6.30;;;;;;;;;;4996018;28;20300;-28
2023/07/24 08:23:06;;;;;;;8.13;5.60;;;;;;;;;;4992624;28;20236;-26
2023/07/24 08:25:34;;;;;;;9.50;5.43;;;;;;;;;;4991136;28;20226;-23
2023/07/24 08:28:01;;;;;;;9.03;5.90;;;;;;;;;;4988918;28;20232;-26
2023/07/24 08:30:28;;;;;;;11.63;6.70;;;;;;;;;;4990899;28;20216;-24
2023/07/24 08:32:56;;;;;;;13.30;6.00;;;;;;;;;;4994467;28;20207;-26
2023/07/24 08:35:23;;;;;;;11.13;6.43;;;;;;;;;;4998976;28;20218;-25
2023/07/24 08:37:50;;;;;;;9.33;6.40;;;;;;;;;;4985783;28;20207;-25
2023/07/24 08:40:18;;;;;;;11.20;6.27;;;;;;;;;;4994508;28;20235;-25
2023/07/24 08:42:46;;;;;;;10.30;5.83;;;;;;;;;;4999157;28;20230;-25
2023/07/24 08:45:14;;;;;;;9.80;6.27;;;;;;;;;;5008742;28;20297;-28
2023/07/24 08:47:47;;;;;;;13.00;6.03;;;;;;;;;;4998466;28;20312;-25
2023/07/24 08:50:21;;;;;;;8.00;5.63;;;;;;;;;;5012022;28;20286;-26
2023/07/24 08:53:00;;;;;;;7.63;5.80;;;;;;;;;;5016233;28;20209;-27
2023/07/24 08:55:29;;;;;;;8.87;5.47;;;;;;;;;;4995704;28;20306;-26
2023/07/24 08:57:57;;;;;;;9.10;5.80;;;;;;;;;;5004342;28;20203;-24
2023/07/24 09:00:31;;;;;;;8.93;5.67;;;;;;;;;;5022450;28;20230;-24
2023/07/24 09:02:58;;;;;;;9.70;6.00;;;;;;;;;;5016486;28;20261;-26
2023/07/24 09:05:25;;;;;;;9.40;6.23;;;;;;;;;;5023356;28;20235;-26
2023/07/24 09:07:55;;;;;;;11.90;6.70;;;;;;;;;;5011094;28;20233;-26
2023/07/24 09:10:26;;;;;;;9.17;6.47;;;;;;;;;;5016590;28;20262;-24
2023/07/24 09:12:54;;;;;;;12.37;6.17;;;;;;;;;;5012113;28;20269;-27
2023/07/24 09:15:21;;;;;;;9.57;5.97;;;;;;;;;;5018434;28;20211;-27
2023/07/24 09:17:51;;;;;;;9.57;6.23;;;;;;;;;;5013541;28;20206;-26
2023/07/24 09:20:18;;;;;;;8.95;5.53;;;;;;;;;;5009730;28;20227;-25
2023/07/24 09:22:51;;;;;;;10.13;5.60;;;;;;;;;;5000482;28;20204;-28
2023/07/24 09:25:19;;;;;;;8.07;5.77;;;;;;;;;;5010627;28;20208;-27
2023/07/24 09:27:48;;;;;;;9.17;5.50;;;;;;;;;;5002718;28;20239;-26
2023/07/24 09:30:17;;;;;;;10.10;5.87;;;;;;;;;;5001879;28;20245;-28
2023/07/24 09:32:44;;;;;;;10.57;5.90;;;;;;;;;;5016304;28;20202;-26
2023/07/24 09:35:18;;;;;;;7.23;5.40;;;;;;;;;;5015597;28;20210;-26
2023/07/24 09:37:46;;;;;;;9.00;6.10;;;;;;;;;;5005169;28;20207;-28
2023/07/24 09:40:14;;;;;;;8.80;5.17;;;;;;;;;;5007964;28;20218;-26
2023/07/24 09:42:41;;;;;;;8.73;5.53;;;;;;;;;;5007832;28;20207;-26
2023/07/24 09:45:09;;;;;;;7.37;5.33;;;;;;;;;;5003079;28;20213;-26
2023/07/24 09:47:37;;;;;;;7.40;5.57;;;;;;;;;;5010705;28;20294;-25
2023/07/24 09:50:13;;;;;;;7.47;5.60;;;;;;;;;;5007961;28;20238;-25
2023/07/24 09:52:42;;;;;;;7.73;5.43;;;;;;;;;;5009561;28;20205;-27
2023/07/24 09:55:12;;;;;;;8.90;5.60;;;;;;;;;;5003508;28;20199;-27
2023/07/24 09:57:39;;;;;;;8.93;5.68;;;;;;;;;;4998977;28;20233;-28
2023/07/24 10:00:08;;;;;;;8.70;5.40;;;;;;;;;;5011102;28;20234;-25
2023/07/24 10:02:35;;;;;;;10.33;5.63;;;;;;;;;;4995804;28;20292;-27
2023/07/24 10:05:05;;;;;;;8.70;5.40;;;;;;;;;;5017839;28;20222;-27
2023/07/24 10:07:33;;;;;;;6.57;5.10;;;;;;;;;;5010377;28;20207;-28
2023/07/24 10:10:00;;;;;;;9.10;5.63;;;;;;;;;;5012503;28;20234;-29
2023/07/24 10:12:30;;;;;;;8.80;5.93;;;;;;;;;;5012876;28;20292;-29
2023/07/24 10:14:57;;;;;;;9.63;5.50;;;;;;;;;;5014830;28;20202;-28
2023/07/24 10:17:43;;;;;;;7.57;5.23;;;;;;;;;;5024309;28;20195;-29
2023/07/24 10:20:12;;;;;;;8.53;5.10;;;;;;;;;;5025043;28;20334;-26
2023/07/24 10:22:42;;;;;;;7.20;4.77;;;;;;;;;;5017018;28;20215;-26
2023/07/24 10:25:10;;;;;;;11.27;5.43;;;;;;;;;;5017099;28;20293;-29
2023/07/24 10:27:37;;;;;;;12.03;6.30;;;;;;;;;;5014676;28;20245;-25
2023/07/24 10:30:23;;;;;;;8.27;5.90;;;;;;;;;;5008249;28;20223;-26
2023/07/24 10:32:52;;;;;;;8.53;6.00;;;;;;;;;;5008938;28;20191;-23
2023/07/24 10:35:22;;;;;;;7.70;5.50;;;;;;;;;;5006922;28;20217;-27
2023/07/24 10:37:49;;;;;;;7.47;5.17;;;;;;;;;;5003415;28;20231;-27
2023/07/24 10:40:22;;;;;;;9.83;5.40;;;;;;;;;;5015803;28;20221;-27
2023/07/24 10:43:00;;;;;;;7.73;5.60;;;;;;;;;;5006393;28;20214;-28
2023/07/24 10:45:27;;;;;;;7.93;5.10;;;;;;;;;;5015471;28;20322;-30
2023/07/24 10:47:54;;;;;;;10.57;5.97;;;;;;;;;;5016151;28;20221;-25
2023/07/24 10:50:23;;;;;;;8.33;5.60;;;;;;;;;;5013556;28;20230;-27
2023/07/24 10:52:50;;;;;;;10.40;5.93;;;;;;;;;;5015988;28;20253;-23
2023/07/24 10:55:18;;;;;;;12.40;6.27;;;;;;;;;;5011168;28;20219;-24
2023/07/24 10:57:45;;;;;;;8.23;5.17;;;;;;;;;;5009387;28;20218;-26
2023/07/24 11:00:13;;;;;;;7.00;5.20;;;;;;;;;;5012362;28;20226;-26
2023/07/24 11:02:40;;;;;;;11.13;6.20;;;;;;;;;;5017074;28;20206;-25
2023/07/24 11:05:09;;;;;;;7.47;5.23;;;;;;;;;;5012156;28;20297;-25
2023/07/24 11:07:37;;;;;;;8.67;5.97;;;;;;;;;;5004443;28;20211;-26
2023/07/24 11:12:57;;;;;;;8.70;6.30;;;;;;;;;;5000345;28;20208;-27
2023/07/24 11:15:26;;;;;;;6.87;4.50;;;;;;;;;;5006161;28;20302;-24
2023/07/24 11:17:53;;;;;;;7.80;5.07;;;;;;;;;;5019845;28;20210;-26
2023/07/24 11:20:21;;;;;;;21.37;16.03;;;;;;;;;;5014824;28;20226;-24
2023/07/24 11:22:49;;;;;;;6.97;5.03;;;;;;;;;;5022983;28;20217;-25
2023/07/24 11:25:17;;;;;;;10.70;6.83;;;;;;;;;;5017747;28;20253;-26
2023/07/24 11:27:44;;;;;;;6.87;5.10;;;;;;;;;;5011255;28;20213;-25
2023/07/24 11:30:12;;;;;;;9.00;5.23;;;;;;;;;;5014918;28;20229;-27
2023/07/24 11:32:40;;;;;;;10.10;5.77;;;;;;;;;;5012700;28;20201;-28
2023/07/24 11:35:08;;;;;;;8.80;4.80;;;;;;;;;;5012705;28;20213;-26
2023/07/24 11:37:35;;;;;;;4.57;3.70;;;;;;;;;;5025770;28;20622;-29
2023/07/24 11:40:09;;;;;;;7.53;4.70;;;;;;;;;;5031551;28;20530;-26
2023/07/24 11:42:38;;;;;;;7.67;4.63;;;;;;;;;;5020693;28;20211;-25
2023/07/24 11:45:06;;;;;;;6.30;4.83;;;;;;;;;;5015277;28;20202;-27
2023/07/24 11:47:33;;;;;;;6.57;5.20;;;;;;;;;;5017963;28;20241;-28
2023/07/24 11:50:01;;;;;;;6.17;4.80;;;;;;;;;;5014094;28;20230;-28
2023/07/24 11:52:38;;;;;;;6.73;4.33;;;;;;;;;;5019958;28;20211;-28
2023/07/24 11:55:08;;;;;;;8.50;4.50;;;;;;;;;;5010042;28;20260;-26
2023/07/24 11:57:35;;;;;;;7.03;4.97;;;;;;;;;;5015613;28;20202;-28
2023/07/24 12:00:03;;;;;;;6.20;4.43;;;;;;;;;;5006343;28;20744;-25
2023/07/24 12:02:30;;;;;;;6.63;4.63;;;;;;;;;;5012942;28;20211;-26
2023/07/24 12:04:58;;;;;;;6.37;4.50;;;;;;;;;;5018222;28;20217;-24
2023/07/24 12:07:30;;;;;;;6.57;4.33;;;;;;;;;;5012006;28;20293;-25
2023/07/24 12:09:57;;;;;;;7.00;4.87;;;;;;;;;;5019099;28;20231;-25
2023/07/24 12:12:26;;;;;;;8.32;4.28;;;;;;;;;;5019951;28;20202;-28
2023/07/24 12:14:53;;;;;;;7.17;4.77;;;;;;;;;;5021192;28;20290;-27
2023/07/24 12:17:20;;;;;;;6.20;4.33;;;;;;;;;;5010585;28;20253;-27
2023/07/24 12:19:48;;;;;;;6.40;4.23;;;;;;;;;;5014649;28;20223;-28
2023/07/24 12:22:15;;;;;;;8.55;4.50;;;;;;;;;;5015477;28;20211;-25
2023/07/24 12:24:42;;;;;;;7.70;4.80;;;;;;;;;;5019867;28;20195;-27
2023/07/24 12:27:09;;;;;;;6.33;4.50;;;;;;;;;;5005236;28;20209;-28
2023/07/24 12:29:38;;;;;;;9.00;4.90;;;;;;;;;;5013670;28;20230;-25
2023/07/24 12:32:05;;;;;;;6.95;4.53;;;;;;;;;;5010125;28;20210;-28
2023/07/24 12:34:32;;;;;;;6.67;4.37;;;;;;;;;;5025070;28;20207;-26
2023/07/24 12:37:00;;;;;;;6.82;4.35;;;;;;;;;;5016464;28;20207;-29
2023/07/24 12:39:27;;;;;;;5.97;4.20;;;;;;;;;;5418336;22;20238;-30
2023/07/24 12:41:54;;;;;;;6.97;3.83;;;;;;;;;;5031998;28;20206;-28
2023/07/24 12:44:21;;;;;;;6.63;4.45;;;;;;;;;;5035290;28;20233;-30
2023/07/24 12:46:50;;;;;;;6.90;4.38;;;;;;;;;;5034840;28;20205;-30
2023/07/24 12:49:17;;;;;;;8.07;4.10;;;;;;;;;;5020493;28;20227;-28
2023/07/24 12:51:44;;;;;;;5.82;4.45;;;;;;;;;;4998867;28;20204;-38
2023/07/24 12:54:11;;;;;;;6.60;4.65;;;;;;;;;;5003828;28;20195;-39
2023/07/24 12:56:38;;;;;;;8.07;4.40;;;;;;;;;;4995773;28;20242;-36
2023/07/24 12:59:05;;;;;;;6.10;4.22;;;;;;;;;;5013688;28;20233;-37
2023/07/24 13:01:32;;;;;;;5.65;4.57;;;;;;;;;;5015488;28;20211;-39
2023/07/24 13:04:01;;;;;;;7.10;4.32;;;;;;;;;;5015374;28;20217;-36
2023/07/24 13:06:28;;;;;;;5.43;4.10;;;;;;;;;;5006751;28;20657;-37
2023/07/24 13:08:55;;;;;;;6.10;4.40;;;;;;;;;;5013453;28;20285;-32
2023/07/24 13:11:22;;;;;;;5.78;4.45;;;;;;;;;;5008599;28;20346;-33
2023/07/24 13:13:50;;;;;;;6.88;4.72;;;;;;;;;;5011816;28;20210;-36
2023/07/24 13:16:17;;;;;;;4.68;3.75;;;;;;;;;;5014815;28;20203;-33
2023/07/24 13:18:45;;;;;;;5.13;4.05;;;;;;;;;;5014071;28;20254;-31
2023/07/24 13:21:13;;;;;;;5.72;4.57;;;;;;;;;;5001169;28;20211;-32
2023/07/24 13:23:41;;;;;;;6.57;4.22;;;;;;;;;;5010911;28;20265;-36
2023/07/24 13:26:10;;;;;;;5.65;4.13;;;;;;;;;;5013171;28;20203;-41
2023/07/24 13:28:37;;;;;;;5.03;3.80;;;;;;;;;;5015737;28;20223;-37
2023/07/24 13:31:12;;;;;;;3.88;3.28;;;;;;;;;;5016231;28;20309;-40
2023/07/24 13:33:40;;;;;;;3.75;3.20;;;;;;;;;;5011625;28;20218;-35
2023/07/24 13:36:07;;;;;;;6.68;3.10;;;;;;;;;;5015078;28;20213;-36
2023/07/24 13:38:35;;;;;;;4.27;3.27;;;;;;;;;;5015578;28;20253;-34
2023/07/24 13:41:04;;;;;;;3.78;3.38;;;;;;;;;;5001832;28;20292;-35
2023/07/24 13:43:31;;;;;;;4.47;3.70;;;;;;;;;;5011764;28;20237;-36
2023/07/24 13:45:58;;;;;;;4.38;3.17;;;;;;;;;;5007710;28;20203;-36
2023/07/24 13:48:32;;;;;;;5.15;3.88;;;;;;;;;;5008784;28;20275;-34
2023/07/24 13:51:02;;;;;;;3.88;3.35;;;;;;;;;;5019362;28;20258;-38
2023/07/24 13:53:29;;;;;;;4.05;3.55;;;;;;;;;;5011555;28;20221;-34
2023/07/24 13:55:57;;;;;;;4.68;3.13;;;;;;;;;;5009076;28;20231;-39
2023/07/24 13:58:25;;;;;;;3.92;3.25;;;;;;;;;;5005676;28;20231;-37
2023/07/24 14:00:52;;;;;;;4.73;3.47;;;;;;;;;;5011837;28;20203;-35
2023/07/24 14:03:19;;;;;;;3.20;2.83;;;;;;;;;;5010655;28;20203;-38
2023/07/24 14:05:46;;;;;;;5.13;3.13;;;;;;;;;;5000737;28;20206;-40
2023/07/24 14:08:13;;;;;;;3.93;3.30;;;;;;;;;;5010689;28;20214;-35
2023/07/24 14:10:40;;;;;;;3.83;3.10;;;;;;;;;;5009544;28;20230;-39
2023/07/24 14:13:09;;;;;;;4.60;3.43;;;;;;;;;;5002821;28;20207;-37
2023/07/24 14:15:36;;;;;;;5.73;3.60;;;;;;;;;;5011202;28;20412;-37
2023/07/24 14:18:03;;;;;;;4.30;3.60;;;;;;;;;;5011589;28;20281;-35
2023/07/24 14:20:30;;;;;;;5.65;3.28;;;;;;;;;;4996286;28;20218;-32
2023/07/24 14:22:57;;;;;;;3.50;2.80;;;;;;;;;;5009480;28;20332;-34
2023/07/24 14:25:25;;;;;;;4.97;2.97;;;;;;;;;;5011340;28;20211;-36
2023/07/24 14:27:53;;;;;;;3.83;2.80;;;;;;;;;;4998254;28;20234;-38
2023/07/24 14:30:21;;;;;;;7.00;2.70;;;;;;;;;;5003353;28;20231;-34
2023/07/24 14:32:49;;;;;;;2.50;2.30;;;;;;;;;;5011043;28;20207;-35
2023/07/24 14:35:17;;;;;;;3.17;2.50;;;;;;;;;;5006040;28;20450;-35
2023/07/24 14:37:44;;;;;;;3.45;2.47;;;;;;;;;;4994774;28;20223;-34
2023/07/24 14:40:12;;;;;;;2.83;2.30;;;;;;;;;;5002680;28;20756;-35
2023/07/24 14:42:39;;;;;;;2.45;2.25;;;;;;;;;;5004633;28;20233;-32
2023/07/24 14:45:08;;;;;;;2.70;2.35;;;;;;;;;;5008935;28;20294;-36
2023/07/24 14:47:36;;;;;;;2.93;2.23;;;;;;;;;;5007811;28;20215;-39
2023/07/24 14:50:03;;;;;;;3.85;2.28;;;;;;;;;;5004253;28;20230;-35
2023/07/24 14:52:30;;;;;;;2.60;2.40;;;;;;;;;;5009622;28;20214;-32
2023/07/24 14:54:58;;;;;;;3.92;2.70;;;;;;;;;;5012948;28;20212;-38
2023/07/24 14:57:25;;;;;;;4.35;2.60;;;;;;;;;;4996314;28;20212;-39
2023/07/24 14:59:52;;;;;;;2.45;2.25;;;;;;;;;;5018757;28;20226;-37
2023/07/24 15:02:20;;;;;;;2.25;2.00;;;;;;;;;;5011026;28;20207;-37
2023/07/24 15:04:48;;;;;;;3.05;2.53;;;;;;;;;;5018969;28;20209;-36
2023/07/24 15:07:15;;;;;;;4.45;2.50;;;;;;;;;;4997965;28;20207;-34
2023/07/24 15:09:43;;;;;;;2.65;2.30;;;;;;;;;;5006660;28;20231;-38
2023/07/24 15:12:10;;;;;;;3.85;2.42;;;;;;;;;;4991919;28;20203;-40
2023/07/24 15:14:38;;;;;;;3.15;2.30;;;;;;;;;;5009949;28;20214;-34
2023/07/24 15:17:05;;;;;;;3.50;2.53;;;;;;;;;;4993118;28;20207;-34
2023/07/24 15:19:32;;;;;;;3.55;2.60;;;;;;;;;;5004441;28;20223;-29
2023/07/24 15:22:01;;;;;;;3.28;2.38;;;;;;;;;;5001508;28;20212;-41
2023/07/24 15:24:28;;;;;;;3.10;2.55;;;;;;;;;;5010545;28;20397;-38
2023/07/24 15:26:55;;;;;;;5.75;2.75;;;;;;;;;;4998679;28;20216;-36